sensor_id;sensor_type;location;lat;lon;timestamp;pressure;altitude;pressure_sealevel;temperature;humidity
57827;BME280;43656;57.746;11.780;2024-03-23T00:55:50;99965.25;;;4.63;100.00
57827;BME280;43656;57.746;11.780;2024-03-23T00:58:15;99950.28;;;4.62;100.00
57827;BME280;43656;57.746;11.780;2024-03-23T01:00:41;99952.34;;;4.60;100.00
57827;BME280;43656;57.746;11.780;2024-03-23T01:03:06;99952.84;;;4.56;100.00
57827;BME280;43656;57.746;11.780;2024-03-23T01:05:31;99942.41;;;4.54;100.00
57827;BME280;43656;57.746;11.780;2024-03-23T01:07:57;99935.13;;;4.48;100.00
57827;BME280;43656;57.746;11.780;2024-03-23T01:10:23;99930.22;;;4.37;100.00
57827;BME280;43656;57.746;11.780;2024-03-23T01:12:49;99940.34;;;4.41;100.00
57827;BME280;43656;57.746;11.780;2024-03-23T01:15:15;99932.59;;;4.32;100.00
57827;BME280;43656;57.746;11.780;2024-03-23T01:17:40;99926.63;;;4.30;100.00
57827;BME280;43656;57.746;11.780;2024-03-23T01:20:06;99924.03;;;4.21;100.00
57827;BME280;43656;57.746;11.780;2024-03-23T01:22:32;99929.38;;;4.21;100.00
57827;BME280;43656;57.746;11.780;2024-03-23T01:24:58;99920.91;;;4.18;100.00
57827;BME280;43656;57.746;11.780;2024-03-23T01:27:23;99919.78;;;4.12;100.00
57827;BME280;43656;57.746;11.780;2024-03-23T01:29:48;99917.84;;;4.06;100.00
57827;BME280;43656;57.746;11.780;2024-03-23T01:32:14;99917.56;;;4.01;100.00
57827;BME280;43656;57.746;11.780;2024-03-23T01:34:39;99908.91;;;3.99;100.00
57827;BME280;43656;57.746;11.780;2024-03-23T01:37:04;99904.97;;;3.95;100.00
57827;BME280;43656;57.746;11.780;2024-03-23T01:39:30;99899.97;;;3.92;100.00
57827;BME280;43656;57.746;11.780;2024-03-23T01:41:55;99904.00;;;3.88;100.00
57827;BME280;43656;57.746;11.780;2024-03-23T01:44:21;99898.84;;;3.86;100.00
57827;BME280;43656;57.746;11.780;2024-03-23T01:46:46;99893.06;;;3.83;100.00
57827;BME280;43656;57.746;11.780;2024-03-23T01:49:12;99892.59;;;3.79;100.00
57827;BME280;43656;57.746;11.780;2024-03-23T01:51:38;99877.06;;;3.68;100.00
57827;BME280;43656;57.746;11.780;2024-03-23T01:54:04;99877.06;;;3.68;100.00
57827;BME280;43656;57.746;11.780;2024-03-23T01:56:34;99888.16;;;3.71;100.00
57827;BME280;43656;57.746;11.780;2024-03-23T01:59:03;99878.34;;;3.72;100.00
57827;BME280;43656;57.746;11.780;2024-03-23T02:01:28;99876.03;;;3.69;100.00
57827;BME280;43656;57.746;11.780;2024-03-23T02:03:54;99869.06;;;3.68;100.00
57827;BME280;43656;57.746;11.780;2024-03-23T02:06:19;99870.41;;;3.64;100.00
57827;BME280;43656;57.746;11.780;2024-03-23T02:08:44;99868.28;;;3.59;100.00
57827;BME280;43656;57.746;11.780;2024-03-23T02:11:10;99868.47;;;3.58;100.00
57827;BME280;43656;57.746;11.780;2024-03-23T02:13:35;99865.50;;;3.52;100.00
57827;BME280;43656;57.746;11.780;2024-03-23T02:16:01;99858.88;;;3.48;100.00
57827;BME280;43656;57.746;11.780;2024-03-23T02:18:27;99858.53;;;3.51;100.00
57827;BME280;43656;57.746;11.780;2024-03-23T02:20:52;99855.22;;;3.49;100.00
57827;BME280;43656;57.746;11.780;2024-03-23T02:23:17;99859.38;;;3.52;100.00
57827;BME280;43656;57.746;11.780;2024-03-23T02:25:43;99851.72;;;3.49;100.00
57827;BME280;43656;57.746;11.780;2024-03-23T02:28:09;99858.06;;;3.48;100.00
57827;BME280;43656;57.746;11.780;2024-03-23T02:30:34;99849.91;;;3.49;100.00
57827;BME280;43656;57.746;11.780;2024-03-23T02:33:00;99852.91;;;3.46;100.00
57827;BME280;43656;57.746;11.780;2024-03-23T02:35:25;99854.28;;;3.42;100.00
57827;BME280;43656;57.746;11.780;2024-03-23T02:37:51;99849.13;;;3.41;100.00
57827;BME280;43656;57.746;11.780;2024-03-23T02:40:17;99856.47;;;3.39;100.00
57827;BME280;43656;57.746;11.780;2024-03-23T02:42:42;99850.13;;;3.40;100.00
57827;BME280;43656;57.746;11.780;2024-03-23T02:45:08;99845.97;;;3.37;100.00
57827;BME280;43656;57.746;11.780;2024-03-23T02:47:33;99859.13;;;3.39;100.00
57827;BME280;43656;57.746;11.780;2024-03-23T02:49:59;99849.66;;;3.36;100.00
57827;BME280;43656;57.746;11.780;2024-03-23T02:52:24;99847.19;;;3.35;100.00
57827;BME280;43656;57.746;11.780;2024-03-23T02:54:49;99836.53;;;3.35;100.00
57827;BME280;43656;57.746;11.780;2024-03-23T02:57:15;99823.97;;;3.20;100.00
57827;BME280;43656;57.746;11.780;2024-03-23T02:59:41;99830.38;;;3.34;100.00
57827;BME280;43656;57.746;11.780;2024-03-23T03:02:06;99832.56;;;3.30;100.00
57827;BME280;43656;57.746;11.780;2024-03-23T03:04:31;99821.44;;;3.27;100.00
57827;BME280;43656;57.746;11.780;2024-03-23T03:06:57;99821.44;;;3.27;100.00
57827;BME280;43656;57.746;11.780;2024-03-23T03:09:22;99815.50;;;3.25;100.00
57827;BME280;43656;57.746;11.780;2024-03-23T03:11:48;99816.50;;;3.24;100.00
57827;BME280;43656;57.746;11.780;2024-03-23T03:14:13;99805.03;;;3.23;100.00
57827;BME280;43656;57.746;11.780;2024-03-23T03:16:39;99813.19;;;3.22;100.00
57827;BME280;43656;57.746;11.780;2024-03-23T03:19:04;99800.72;;;3.22;100.00
57827;BME280;43656;57.746;11.780;2024-03-23T03:21:29;99796.41;;;3.21;100.00
57827;BME280;43656;57.746;11.780;2024-03-23T03:23:56;99794.75;;;3.20;100.00
57827;BME280;43656;57.746;11.780;2024-03-23T03:26:22;99800.41;;;3.17;100.00
57827;BME280;43656;57.746;11.780;2024-03-23T03:28:48;99778.88;;;3.12;100.00
57827;BME280;43656;57.746;11.780;2024-03-23T03:31:17;99783.00;;;3.15;100.00
57827;BME280;43656;57.746;11.780;2024-03-23T03:33:43;99782.00;;;3.16;100.00
57827;BME280;43656;57.746;11.780;2024-03-23T03:36:09;99778.88;;;3.12;100.00
57827;BME280;43656;57.746;11.780;2024-03-23T03:38:34;99773.91;;;3.09;100.00
57827;BME280;43656;57.746;11.780;2024-03-23T03:41:04;99771.88;;;3.11;100.00
57827;BME280;43656;57.746;11.780;2024-03-23T03:43:29;99770.06;;;3.12;100.00
57827;BME280;43656;57.746;11.780;2024-03-23T03:45:56;99763.91;;;3.11;100.00
57827;BME280;43656;57.746;11.780;2024-03-23T03:48:22;99736.44;;;2.96;100.00
57827;BME280;43656;57.746;11.780;2024-03-23T03:50:48;99767.22;;;3.13;100.00
57827;BME280;43656;57.746;11.780;2024-03-23T03:53:13;99754.13;;;3.12;100.00
57827;BME280;43656;57.746;11.780;2024-03-23T03:55:39;99761.09;;;3.13;100.00
57827;BME280;43656;57.746;11.780;2024-03-23T03:58:04;99760.06;;;3.14;100.00
57827;BME280;43656;57.746;11.780;2024-03-23T04:00:30;99743.28;;;3.13;100.00
57827;BME280;43656;57.746;11.780;2024-03-23T04:02:56;99753.94;;;3.13;100.00
57827;BME280;43656;57.746;11.780;2024-03-23T04:05:21;99750.59;;;3.11;100.00
57827;BME280;43656;57.746;11.780;2024-03-23T04:07:47;99755.94;;;3.11;100.00
57827;BME280;43656;57.746;11.780;2024-03-23T04:10:13;99755.94;;;3.11;100.00
57827;BME280;43656;57.746;11.780;2024-03-23T04:12:38;99744.94;;;3.14;100.00
57827;BME280;43656;57.746;11.780;2024-03-23T04:15:04;99749.75;;;3.19;100.00
57827;BME280;43656;57.746;11.780;2024-03-23T04:17:30;99744.59;;;3.17;100.00
57827;BME280;43656;57.746;11.780;2024-03-23T04:19:58;99735.31;;;3.13;100.00
57827;BME280;43656;57.746;11.780;2024-03-23T04:22:24;99746.16;;;3.12;100.00
57827;BME280;43656;57.746;11.780;2024-03-23T04:24:54;99741.19;;;3.09;100.00
57827;BME280;43656;57.746;11.780;2024-03-23T04:27:20;99733.91;;;3.02;100.00
57827;BME280;43656;57.746;11.780;2024-03-23T04:29:52;99733.09;;;3.02;100.00
57827;BME280;43656;57.746;11.780;2024-03-23T04:32:18;99733.25;;;3.00;100.00
57827;BME280;43656;57.746;11.780;2024-03-23T04:34:44;99731.41;;;3.01;100.00
57827;BME280;43656;57.746;11.780;2024-03-23T04:37:10;99724.28;;;3.01;100.00
57827;BME280;43656;57.746;11.780;2024-03-23T04:39:36;99714.47;;;3.02;100.00
57827;BME280;43656;57.746;11.780;2024-03-23T04:42:02;99722.81;;;2.99;100.00
57827;BME280;43656;57.746;11.780;2024-03-23T04:44:28;99733.44;;;2.99;100.00
57827;BME280;43656;57.746;11.780;2024-03-23T04:46:54;99724.81;;;2.97;100.00
57827;BME280;43656;57.746;11.780;2024-03-23T04:49:19;99727.00;;;2.93;100.00
57827;BME280;43656;57.746;11.780;2024-03-23T04:51:45;99727.19;;;2.92;100.00
57827;BME280;43656;57.746;11.780;2024-03-23T04:54:12;99719.91;;;2.86;100.00
57827;BME280;43656;57.746;11.780;2024-03-23T04:56:37;99716.25;;;2.87;100.00
57827;BME280;43656;57.746;11.780;2024-03-23T04:59:03;99721.19;;;2.90;100.00
57827;BME280;43656;57.746;11.780;2024-03-23T05:01:33;99715.88;;;2.90;100.00
57827;BME280;43656;57.746;11.780;2024-03-23T05:03:58;99711.41;;;2.90;100.00
57827;BME280;43656;57.746;11.780;2024-03-23T05:06:25;99690.91;;;2.76;100.00
57827;BME280;43656;57.746;11.780;2024-03-23T05:08:51;99706.28;;;2.89;100.00
57827;BME280;43656;57.746;11.780;2024-03-23T05:11:17;99711.03;;;2.93;100.00
57827;BME280;43656;57.746;11.780;2024-03-23T05:13:43;99705.56;;;2.95;100.00
57827;BME280;43656;57.746;11.780;2024-03-23T05:16:09;99705.38;;;2.96;100.00
57827;BME280;43656;57.746;11.780;2024-03-23T05:18:35;99709.69;;;2.97;100.00
57827;BME280;43656;57.746;11.780;2024-03-23T05:21:01;99700.88;;;2.97;100.00
57827;BME280;43656;57.746;11.780;2024-03-23T05:23:28;99696.72;;;3.02;100.00
57827;BME280;43656;57.746;11.780;2024-03-23T05:25:53;99699.00;;;3.05;100.00
57827;BME280;43656;57.746;11.780;2024-03-23T05:28:19;99690.84;;;3.07;100.00
57827;BME280;43656;57.746;11.780;2024-03-23T05:30:54;99699.47;;;3.09;100.00
57827;BME280;43656;57.746;11.780;2024-03-23T05:33:20;99689.66;;;3.10;100.00
57827;BME280;43656;57.746;11.780;2024-03-23T05:35:46;99701.06;;;3.18;100.00
57827;BME280;43656;57.746;11.780;2024-03-23T05:38:13;99699.50;;;3.24;100.00
57827;BME280;43656;57.746;11.780;2024-03-23T05:40:39;99697.88;;;3.23;100.00
57827;BME280;43656;57.746;11.780;2024-03-23T05:43:06;99703.59;;;3.35;100.00
57827;BME280;43656;57.746;11.780;2024-03-23T05:45:31;99701.22;;;3.40;100.00
57827;BME280;43656;57.746;11.780;2024-03-23T05:47:57;99698.84;;;3.45;100.00
57827;BME280;43656;57.746;11.780;2024-03-23T05:50:23;99700.31;;;3.47;100.00
57827;BME280;43656;57.746;11.780;2024-03-23T05:52:49;99699.59;;;3.53;100.00
57827;BME280;43656;57.746;11.780;2024-03-23T05:55:15;99687.59;;;3.58;100.00
57827;BME280;43656;57.746;11.780;2024-03-23T05:57:40;99686.41;;;3.60;100.00
57827;BME280;43656;57.746;11.780;2024-03-23T06:00:07;99682.19;;;3.66;100.00
57827;BME280;43656;57.746;11.780;2024-03-23T06:02:42;99685.59;;;3.74;100.00
57827;BME280;43656;57.746;11.780;2024-03-23T06:05:11;99684.22;;;3.79;100.00
57827;BME280;43656;57.746;11.780;2024-03-23T06:07:37;99679.63;;;3.87;100.00
57827;BME280;43656;57.746;11.780;2024-03-23T06:10:02;99680.72;;;3.93;100.00
57827;BME280;43656;57.746;11.780;2024-03-23T06:12:28;99671.72;;;3.94;100.00
57827;BME280;43656;57.746;11.780;2024-03-23T06:14:53;99673.84;;;3.98;100.00
57827;BME280;43656;57.746;11.780;2024-03-23T06:17:19;99675.88;;;4.11;100.00
57827;BME280;43656;57.746;11.780;2024-03-23T06:19:44;99669.16;;;4.15;100.00
57827;BME280;43656;57.746;11.780;2024-03-23T06:22:10;99678.34;;;4.28;100.00
57827;BME280;43656;57.746;11.780;2024-03-23T06:24:35;99676.75;;;4.33;100.00
57827;BME280;43656;57.746;11.780;2024-03-23T06:27:00;99678.03;;;4.37;100.00
57827;BME280;43656;57.746;11.780;2024-03-23T06:29:26;99662.31;;;4.42;100.00
57827;BME280;43656;57.746;11.780;2024-03-23T06:31:53;99675.41;;;4.59;100.00
57827;BME280;43656;57.746;11.780;2024-03-23T06:34:19;99667.19;;;4.75;100.00
57827;BME280;43656;57.746;11.780;2024-03-23T06:36:46;99597.31;;;4.37;100.00
57827;BME280;43656;57.746;11.780;2024-03-23T06:39:12;99667.97;;;4.90;100.00
57827;BME280;43656;57.746;11.780;2024-03-23T06:41:41;99662.06;;;4.95;100.00
57827;BME280;43656;57.746;11.780;2024-03-23T06:44:07;99661.72;;;5.05;100.00
57827;BME280;43656;57.746;11.780;2024-03-23T06:46:32;99667.31;;;5.10;100.00
57827;BME280;43656;57.746;11.780;2024-03-23T06:48:57;99590.66;;;4.69;100.00
57827;BME280;43656;57.746;11.780;2024-03-23T06:51:23;99662.69;;;5.18;100.00
57827;BME280;43656;57.746;11.780;2024-03-23T06:53:49;99624.16;;;5.00;100.00
57827;BME280;43656;57.746;11.780;2024-03-23T06:56:15;99654.50;;;5.20;100.00
57827;BME280;43656;57.746;11.780;2024-03-23T06:58:40;99658.03;;;5.27;100.00
57827;BME280;43656;57.746;11.780;2024-03-23T07:01:06;99630.50;;;5.20;100.00
57827;BME280;43656;57.746;11.780;2024-03-23T07:03:32;99652.16;;;5.38;100.00
57827;BME280;43656;57.746;11.780;2024-03-23T07:06:16;99651.81;;;5.48;100.00
57827;BME280;43656;57.746;11.780;2024-03-23T07:08:42;99650.03;;;5.55;100.00
57827;BME280;43656;57.746;11.780;2024-03-23T07:11:07;99654.81;;;5.60;100.00
57827;BME280;43656;57.746;11.780;2024-03-23T07:13:32;99657.94;;;5.70;100.00
57827;BME280;43656;57.746;11.780;2024-03-23T07:15:58;99656.75;;;5.79;100.00
57827;BME280;43656;57.746;11.780;2024-03-23T07:18:25;99653.06;;;5.80;100.00
57827;BME280;43656;57.746;11.780;2024-03-23T07:20:54;99647.75;;;5.80;100.00
57827;BME280;43656;57.746;11.780;2024-03-23T07:23:19;99645.28;;;5.85;100.00
57827;BME280;43656;57.746;11.780;2024-03-23T07:25:45;99642.50;;;5.94;100.00
57827;BME280;43656;57.746;11.780;2024-03-23T07:28:20;99649.34;;;6.03;100.00
57827;BME280;43656;57.746;11.780;2024-03-23T07:30:46;99592.06;;;5.77;100.00
57827;BME280;43656;57.746;11.780;2024-03-23T07:33:12;99625.69;;;6.00;100.00
57827;BME280;43656;57.746;11.780;2024-03-23T07:35:37;99639.34;;;6.25;100.00
57827;BME280;43656;57.746;11.780;2024-03-23T07:38:03;99607.84;;;6.07;100.00
57827;BME280;43656;57.746;11.780;2024-03-23T07:40:30;99607.06;;;6.13;100.00
57827;BME280;43656;57.746;11.780;2024-03-23T07:42:56;99640.88;;;6.54;100.00
57827;BME280;43656;57.746;11.780;2024-03-23T07:45:21;99616.44;;;6.57;100.00
57827;BME280;43656;57.746;11.780;2024-03-23T07:47:47;99630.22;;;6.61;100.00
57827;BME280;43656;57.746;11.780;2024-03-23T07:50:12;99629.78;;;6.50;100.00
57827;BME280;43656;57.746;11.780;2024-03-23T07:52:38;99572.94;;;6.15;100.00
57827;BME280;43656;57.746;11.780;2024-03-23T07:55:03;99618.47;;;6.55;100.00
57827;BME280;43656;57.746;11.780;2024-03-23T07:57:29;99625.25;;;6.51;100.00
57827;BME280;43656;57.746;11.780;2024-03-23T07:59:54;99589.22;;;6.27;100.00
57827;BME280;43656;57.746;11.780;2024-03-23T08:02:20;99612.28;;;6.41;100.00
57827;BME280;43656;57.746;11.780;2024-03-23T08:04:46;99549.09;;;6.00;100.00
57827;BME280;43656;57.746;11.780;2024-03-23T08:07:11;99575.41;;;6.10;100.00
57827;BME280;43656;57.746;11.780;2024-03-23T08:09:37;99583.06;;;6.26;100.00
57827;BME280;43656;57.746;11.780;2024-03-23T08:12:02;99542.16;;;6.13;100.00
57827;BME280;43656;57.746;11.780;2024-03-23T08:14:28;99595.47;;;6.67;100.00
57827;BME280;43656;57.746;11.780;2024-03-23T08:16:54;99611.09;;;6.64;100.00
57827;BME280;43656;57.746;11.780;2024-03-23T08:19:20;99616.03;;;6.67;100.00
57827;BME280;43656;57.746;11.780;2024-03-23T08:21:45;99617.69;;;6.68;100.00
57827;BME280;43656;57.746;11.780;2024-03-23T08:24:10;99584.38;;;6.57;100.00
57827;BME280;43656;57.746;11.780;2024-03-23T08:26:36;99581.03;;;6.48;100.00
57827;BME280;43656;57.746;11.780;2024-03-23T08:29:03;99618.50;;;6.68;100.00
57827;BME280;43656;57.746;11.780;2024-03-23T08:31:28;99615.03;;;6.74;100.00
57827;BME280;43656;57.746;11.780;2024-03-23T08:33:53;99591.19;;;6.73;100.00
57827;BME280;43656;57.746;11.780;2024-03-23T08:36:19;99610.50;;;6.95;100.00
57827;BME280;43656;57.746;11.780;2024-03-23T08:38:44;99574.94;;;6.81;100.00
57827;BME280;43656;57.746;11.780;2024-03-23T08:41:11;99614.03;;;7.02;100.00
57827;BME280;43656;57.746;11.780;2024-03-23T08:43:38;99617.72;;;6.88;100.00
57827;BME280;43656;57.746;11.780;2024-03-23T08:46:11;99620.78;;;6.85;100.00
57827;BME280;43656;57.746;11.780;2024-03-23T08:48:38;99584.78;;;6.67;100.00
57827;BME280;43656;57.746;11.780;2024-03-23T08:51:07;99597.94;;;6.82;100.00
57827;BME280;43656;57.746;11.780;2024-03-23T08:53:34;99620.63;;;6.99;100.00
57827;BME280;43656;57.746;11.780;2024-03-23T08:56:00;99618.53;;;6.95;100.00
57827;BME280;43656;57.746;11.780;2024-03-23T08:58:27;99622.66;;;6.97;100.00
57827;BME280;43656;57.746;11.780;2024-03-23T09:00:53;99573.28;;;6.73;100.00
57827;BME280;43656;57.746;11.780;2024-03-23T09:03:21;99617.53;;;6.96;100.00
57827;BME280;43656;57.746;11.780;2024-03-23T09:05:47;99622.66;;;6.97;100.00
57827;BME280;43656;57.746;11.780;2024-03-23T09:08:12;99620.63;;;6.93;100.00
57827;BME280;43656;57.746;11.780;2024-03-23T09:10:38;99613.41;;;6.80;100.00
57827;BME280;43656;57.746;11.780;2024-03-23T09:13:04;99612.56;;;6.79;100.00
57827;BME280;43656;57.746;11.780;2024-03-23T09:15:30;99627.19;;;6.90;100.00
57827;BME280;43656;57.746;11.780;2024-03-23T09:17:56;99623.28;;;6.93;100.00
57827;BME280;43656;57.746;11.780;2024-03-23T09:20:21;99543.03;;;6.46;100.00
57827;BME280;43656;57.746;11.780;2024-03-23T09:22:48;99593.84;;;6.79;100.00
57827;BME280;43656;57.746;11.780;2024-03-23T09:25:13;99614.44;;;7.05;100.00
57827;BME280;43656;57.746;11.780;2024-03-23T09:27:39;99599.63;;;6.96;100.00
57827;BME280;43656;57.746;11.780;2024-03-23T09:30:04;99610.75;;;7.00;100.00
57827;BME280;43656;57.746;11.780;2024-03-23T09:32:36;99617.31;;;6.97;100.00
57827;BME280;43656;57.746;11.780;2024-03-23T09:35:05;99565.84;;;6.55;100.00
57827;BME280;43656;57.746;11.780;2024-03-23T09:37:34;99589.72;;;6.70;100.00
57827;BME280;43656;57.746;11.780;2024-03-23T09:40:00;99599.00;;;6.88;100.00
57827;BME280;43656;57.746;11.780;2024-03-23T09:42:25;99616.28;;;7.05;100.00
57827;BME280;43656;57.746;11.780;2024-03-23T09:44:51;99615.69;;;7.10;100.00
57827;BME280;43656;57.746;11.780;2024-03-23T09:47:17;99596.72;;;6.91;100.00
57827;BME280;43656;57.746;11.780;2024-03-23T09:49:42;99580.91;;;6.83;100.00
57827;BME280;43656;57.746;11.780;2024-03-23T09:52:08;99542.25;;;6.66;100.00
57827;BME280;43656;57.746;11.780;2024-03-23T09:54:34;99617.72;;;7.21;100.00
57827;BME280;43656;57.746;11.780;2024-03-23T09:56:59;99611.97;;;7.30;100.00
57827;BME280;43656;57.746;11.780;2024-03-23T09:59:24;99590.97;;;7.21;100.00
57827;BME280;43656;57.746;11.780;2024-03-23T10:01:53;99570.59;;;7.20;100.00
57827;BME280;43656;57.746;11.780;2024-03-23T10:04:37;99586.25;;;7.36;100.00
57827;BME280;43656;57.746;11.780;2024-03-23T10:07:18;99602.66;;;7.60;100.00
57827;BME280;43656;57.746;11.780;2024-03-23T10:09:44;99596.91;;;7.56;100.00
57827;BME280;43656;57.746;11.780;2024-03-23T10:12:15;99591.56;;;7.49;100.00
57827;BME280;43656;57.746;11.780;2024-03-23T10:14:41;99607.41;;;7.58;100.00
57827;BME280;43656;57.746;11.780;2024-03-23T10:17:18;99563.41;;;7.27;100.00
57827;BME280;43656;57.746;11.780;2024-03-23T10:19:48;99595.06;;;7.50;100.00
57827;BME280;43656;57.746;11.780;2024-03-23T10:22:22;99599.75;;;7.61;100.00
57827;BME280;43656;57.746;11.780;2024-03-23T10:24:48;99599.53;;;7.76;100.00
57827;BME280;43656;57.746;11.780;2024-03-23T10:27:21;99587.56;;;7.85;100.00
57827;BME280;43656;57.746;11.780;2024-03-23T10:29:50;99592.06;;;7.98;100.00
57827;BME280;43656;57.746;11.780;2024-03-23T10:32:18;99552.19;;;7.70;100.00
57827;BME280;43656;57.746;11.780;2024-03-23T10:34:44;99593.06;;;7.97;100.00
57827;BME280;43656;57.746;11.780;2024-03-23T10:37:10;99592.63;;;8.07;100.00
57827;BME280;43656;57.746;11.780;2024-03-23T10:39:40;99583.69;;;8.26;100.00
57827;BME280;43656;57.746;11.780;2024-03-23T10:42:09;99579.91;;;8.40;100.00
57827;BME280;43656;57.746;11.780;2024-03-23T10:44:38;99585.59;;;8.57;100.00
57827;BME280;43656;57.746;11.780;2024-03-23T10:47:05;99582.91;;;8.57;100.00
57827;BME280;43656;57.746;11.780;2024-03-23T10:49:32;99577.31;;;8.65;100.00
57827;BME280;43656;57.746;11.780;2024-03-23T10:52:02;99575.09;;;8.56;100.00
57827;BME280;43656;57.746;11.780;2024-03-23T10:54:29;99588.69;;;8.54;100.00
57827;BME280;43656;57.746;11.780;2024-03-23T10:59:31;99585.34;;;8.20;100.00
57827;BME280;43656;57.746;11.780;2024-03-23T11:01:58;99587.38;;;8.38;100.00
57827;BME280;43656;57.746;11.780;2024-03-23T11:04:33;99576.53;;;8.58;100.00
57827;BME280;43656;57.746;11.780;2024-03-23T11:07:00;99570.50;;;8.63;100.00
57827;BME280;43656;57.746;11.780;2024-03-23T11:14:50;99558.69;;;8.70;100.00
57827;BME280;43656;57.746;11.780;2024-03-23T11:17:20;99562.78;;;8.73;100.00
57827;BME280;43656;57.746;11.780;2024-03-23T11:19:58;99547.19;;;8.63;100.00
57827;BME280;43656;57.746;11.780;2024-03-23T11:22:43;99564.84;;;8.78;100.00
57827;BME280;43656;57.746;11.780;2024-03-23T11:27:37;99566.69;;;8.77;100.00
57827;BME280;43656;57.746;11.780;2024-03-23T11:30:13;99557.38;;;8.80;100.00
57827;BME280;43656;57.746;11.780;2024-03-23T11:32:39;99560.72;;;8.75;100.00
57827;BME280;43656;57.746;11.780;2024-03-23T11:35:05;99562.84;;;8.66;100.00
57827;BME280;43656;57.746;11.780;2024-03-23T11:37:31;99540.38;;;8.61;100.00
57827;BME280;43656;57.746;11.780;2024-03-23T11:39:56;99557.88;;;8.70;100.00
57827;BME280;43656;57.746;11.780;2024-03-23T11:42:22;99534.31;;;8.47;100.00
57827;BME280;43656;57.746;11.780;2024-03-23T11:44:47;99506.78;;;8.27;100.00
57827;BME280;43656;57.746;11.780;2024-03-23T11:47:12;99538.59;;;8.55;100.00
57827;BME280;43656;57.746;11.780;2024-03-23T11:49:38;99545.63;;;8.81;100.00
57827;BME280;43656;57.746;11.780;2024-03-23T11:52:06;99538.19;;;9.08;100.00
57827;BME280;43656;57.746;11.780;2024-03-23T11:54:32;99539.56;;;9.10;100.00
57827;BME280;43656;57.746;11.780;2024-03-23T11:56:58;99539.50;;;8.99;100.00
57827;BME280;43656;57.746;11.780;2024-03-23T11:59:50;99533.50;;;8.97;100.00
57827;BME280;43656;57.746;11.780;2024-03-23T12:02:18;99528.81;;;8.92;100.00
57827;BME280;43656;57.746;11.780;2024-03-23T12:04:43;99500.63;;;8.58;100.00
57827;BME280;43656;57.746;11.780;2024-03-23T12:07:20;99546.25;;;8.51;100.00
57827;BME280;43656;57.746;11.780;2024-03-23T12:10:02;99530.03;;;8.39;100.00
57827;BME280;43656;57.746;11.780;2024-03-23T12:12:28;99521.78;;;8.34;100.00
57827;BME280;43656;57.746;11.780;2024-03-23T12:15:07;99536.84;;;8.35;100.00
57827;BME280;43656;57.746;11.780;2024-03-23T12:17:34;99529.03;;;8.27;100.00
57827;BME280;43656;57.746;11.780;2024-03-23T12:20:01;99486.50;;;8.06;100.00
57827;BME280;43656;57.746;11.780;2024-03-23T12:22:27;99537.03;;;8.40;100.00
57827;BME280;43656;57.746;11.780;2024-03-23T12:24:52;99525.06;;;8.43;100.00
57827;BME280;43656;57.746;11.780;2024-03-23T12:27:18;99527.50;;;8.51;100.00
57827;BME280;43656;57.746;11.780;2024-03-23T12:29:43;99522.47;;;8.61;100.00
57827;BME280;43656;57.746;11.780;2024-03-23T12:32:11;99525.16;;;8.61;100.00
57827;BME280;43656;57.746;11.780;2024-03-23T12:34:37;99487.16;;;8.39;100.00
57827;BME280;43656;57.746;11.780;2024-03-23T12:37:03;99526.16;;;8.60;100.00
57827;BME280;43656;57.746;11.780;2024-03-23T12:39:28;99515.88;;;8.57;100.00
57827;BME280;43656;57.746;11.780;2024-03-23T12:41:54;99502.91;;;8.54;100.00
57827;BME280;43656;57.746;11.780;2024-03-23T12:44:19;99508.06;;;8.56;100.00
57827;BME280;43656;57.746;11.780;2024-03-23T12:46:45;99487.63;;;8.61;100.00
57827;BME280;43656;57.746;11.780;2024-03-23T12:49:11;99507.84;;;8.82;100.00
57827;BME280;43656;57.746;11.780;2024-03-23T12:51:36;99501.88;;;9.05;100.00
57827;BME280;43656;57.746;11.780;2024-03-23T12:54:02;99494.63;;;8.87;100.00
57827;BME280;43656;57.746;11.780;2024-03-23T12:56:28;99502.59;;;8.94;100.00
57827;BME280;43656;57.746;11.780;2024-03-23T12:58:54;99482.97;;;8.93;100.00
57827;BME280;43656;57.746;11.780;2024-03-23T13:01:20;99479.22;;;8.76;100.00
57827;BME280;43656;57.746;11.780;2024-03-23T13:03:49;99501.88;;;8.80;100.00
57827;BME280;43656;57.746;11.780;2024-03-23T13:06:18;99495.00;;;8.91;100.00
57827;BME280;43656;57.746;11.780;2024-03-23T13:08:45;99435.25;;;8.59;100.00
57827;BME280;43656;57.746;11.780;2024-03-23T13:11:11;99478.47;;;8.94;100.00
57827;BME280;43656;57.746;11.780;2024-03-23T13:13:37;99484.19;;;8.98;100.00
57827;BME280;43656;57.746;11.780;2024-03-23T13:16:03;99467.06;;;8.74;100.00
57827;BME280;43656;57.746;11.780;2024-03-23T13:18:29;99482.25;;;8.61;100.00
57827;BME280;43656;57.746;11.780;2024-03-23T13:20:55;99489.91;;;8.58;100.00
57827;BME280;43656;57.746;11.780;2024-03-23T13:23:20;99489.53;;;8.47;100.00
57827;BME280;43656;57.746;11.780;2024-03-23T13:25:53;99467.75;;;8.37;100.00
57827;BME280;43656;57.746;11.780;2024-03-23T13:28:19;99483.38;;;8.47;100.00
57827;BME280;43656;57.746;11.780;2024-03-23T13:30:55;99491.66;;;8.45;100.00
57827;BME280;43656;57.746;11.780;2024-03-23T13:33:20;99474.00;;;8.31;100.00
57827;BME280;43656;57.746;11.780;2024-03-23T13:35:53;99426.88;;;7.85;100.00
57827;BME280;43656;57.746;11.780;2024-03-23T13:38:20;99486.94;;;8.03;100.00
57827;BME280;43656;57.746;11.780;2024-03-23T13:40:56;99507.81;;;7.87;100.00
57827;BME280;43656;57.746;11.780;2024-03-23T13:43:22;99518.81;;;7.72;100.00
57827;BME280;43656;57.746;11.780;2024-03-23T13:45:49;99524.13;;;6.94;100.00
57827;BME280;43656;57.746;11.780;2024-03-23T13:48:17;99462.53;;;5.88;100.00
57827;BME280;43656;57.746;11.780;2024-03-23T13:50:43;99520.09;;;5.97;100.00
57827;BME280;43656;57.746;11.780;2024-03-23T13:53:08;99518.66;;;5.95;100.00